Time;durP1;ratioP1;P1;durP2;ratioP2;P2;SDS_P1;SDS_P2;PMS_P1;PMS_P2;Temp;Humidity;BMP_temperature;BMP_pressure;BME280_temperature;BME280_humidity;BME280_pressure;Samples;Min_cycle;Max_cycle;Signal;HPM_P1;HPM_P2
2022/08/29 00:00:26;;;;;;;17.40;8.90;;;;;;;20.57;56.55;98834.52;105820;1278;112082;-67
2022/08/29 00:03:07;;;;;;;15.50;7.70;;;;;;;20.57;56.53;98834.34;105918;1276;96442;-68
2022/08/29 00:05:38;;;;;;;17.00;8.10;;;;;;;20.56;56.65;98833.17;105974;1276;108345;-66
2022/08/29 00:08:09;;;;;;;16.10;8.10;;;;;;;20.54;56.65;98836.09;106012;1276;98381;-66
2022/08/29 00:10:39;;;;;;;18.20;8.60;;;;;;;20.51;56.75;98833.04;105999;1276;97893;-66
2022/08/29 00:13:10;;;;;;;16.50;8.20;;;;;;;20.50;56.79;98832.08;105855;1276;112332;-67
2022/08/29 00:15:39;;;;;;;16.60;8.30;;;;;;;20.48;56.86;98837.69;105864;1278;97988;-67
2022/08/29 00:18:16;;;;;;;16.90;8.30;;;;;;;20.45;56.95;98837.91;105882;1277;108468;-67
2022/08/29 00:20:46;;;;;;;16.20;8.00;;;;;;;20.42;57.04;98837.28;105841;1278;97882;-66
2022/08/29 00:23:16;;;;;;;19.70;8.80;;;;;;;20.42;57.14;98827.98;105958;1277;97970;-66
2022/08/29 00:25:45;;;;;;;17.90;8.70;;;;;;;20.42;57.18;98831.38;106042;1276;112162;-66
2022/08/29 00:28:13;;;;;;;17.90;8.40;;;;;;;20.40;57.32;98829.08;105831;1276;97916;-66
2022/08/29 00:30:42;;;;;;;17.00;7.70;;;;;;;20.36;57.21;98827.15;105866;1278;107947;-66
2022/08/29 00:33:10;;;;;;;16.30;8.00;;;;;;;20.35;57.30;98826.55;105824;1276;98020;-65
2022/08/29 00:35:42;;;;;;;15.50;8.10;;;;;;;20.34;57.52;98826.21;105895;1278;97924;-66
2022/08/29 00:38:14;;;;;;;;;;;;;;;20.33;57.52;98824.07;105857;1279;111921;-66
2022/08/29 00:40:49;;;;;;;16.30;8.70;;;;;;;20.29;57.68;98827.08;105890;1277;97911;-70
2022/08/29 00:43:24;;;;;;;17.60;8.50;;;;;;;20.30;57.71;98827.91;105879;1278;108389;-65
2022/08/29 00:46:03;;;;;;;18.00;8.50;;;;;;;20.29;57.78;98824.20;105829;1278;97850;-66
2022/08/29 00:48:34;;;;;;;18.00;9.30;;;;;;;20.27;57.98;98822.13;105903;1278;97872;-66
2022/08/29 00:51:07;;;;;;;17.60;8.40;;;;;;;20.25;57.72;98820.89;105895;1278;112224;-66
2022/08/29 00:53:43;;;;;;;16.10;8.50;;;;;;;20.24;58.02;98817.09;105937;1277;97959;-67
2022/08/29 00:56:14;;;;;;;17.30;8.70;;;;;;;20.22;58.07;98812.80;105846;1278;108390;-64
2022/08/29 00:58:49;;;;;;;15.30;7.90;;;;;;;20.21;58.06;98812.52;105977;1276;95228;-66
2022/08/29 01:01:19;;;;;;;17.50;7.90;;;;;;;20.21;58.33;98812.03;105838;1279;97980;-65
2022/08/29 01:03:50;;;;;;;16.80;7.60;;;;;;;20.21;58.19;98813.79;105829;1278;112026;-65
2022/08/29 01:06:19;;;;;;;17.10;7.90;;;;;;;20.20;58.28;98814.06;105893;1278;97729;-67
2022/08/29 01:08:47;;;;;;;16.00;7.60;;;;;;;20.13;58.24;98814.00;105837;1278;107663;-68
2022/08/29 01:14:18;;;;;;;17.00;8.30;;;;;;;20.06;58.63;98821.83;105845;1279;97907;-65
2022/08/29 01:16:49;;;;;;;19.30;9.10;;;;;;;20.06;58.68;98822.58;105840;1278;111357;-67
2022/08/29 01:19:45;;;;;;;20.20;9.70;;;;;;;20.07;58.78;98821.18;105896;1278;97901;-66
2022/08/29 01:22:44;;;;;;;19.50;10.40;;;;;;;20.09;58.88;98824.62;105821;1278;108427;-70
2022/08/29 01:25:20;;;;;;;20.60;11.00;;;;;;;20.09;59.09;98820.77;105866;1278;95232;-67
2022/08/29 01:28:10;;;;;;;22.10;11.70;;;;;;;20.10;59.03;98816.91;105843;1278;97976;-65
2022/08/29 01:31:05;;;;;;;21.70;12.30;;;;;;;20.11;59.21;98809.48;105878;1278;112106;-64
2022/08/29 01:33:41;;;;;;;23.80;13.20;;;;;;;20.09;59.22;98806.98;105988;1276;97998;-66
2022/08/29 01:36:14;;;;;;;22.70;13.40;;;;;;;20.08;59.20;98804.88;105834;1278;107689;-65
2022/08/29 01:38:42;;;;;;;21.20;12.00;;;;;;;20.07;59.51;98799.34;105878;1278;98362;-66
2022/08/29 01:41:13;;;;;;;25.00;14.80;;;;;;;20.06;59.47;98800.36;105901;1278;97883;-65
2022/08/29 01:43:50;;;;;;;23.50;14.20;;;;;;;20.07;59.69;98805.02;105916;1278;113939;-66
2022/08/29 01:46:24;;;;;;;24.10;14.40;;;;;;;20.07;59.57;98807.68;105883;1279;98081;-67
2022/08/29 01:48:52;;;;;;;24.10;14.40;;;;;;;20.06;59.71;98807.63;105856;1278;107756;-68
2022/08/29 01:51:24;;;;;;;22.90;13.60;;;;;;;20.04;59.77;98814.29;105885;1278;98069;-67
2022/08/29 01:53:52;;;;;;;25.40;15.70;;;;;;;20.04;59.75;98816.64;105944;1278;97868;-67
2022/08/29 01:56:28;;;;;;;26.50;15.80;;;;;;;20.03;59.97;98820.73;106031;1278;112008;-67
2022/08/29 01:58:59;;;;;;;28.00;17.10;;;;;;;20.03;60.04;98822.77;106033;1277;97960;-67
2022/08/29 02:01:34;;;;;;;29.60;15.90;;;;;;;20.04;60.26;98830.17;106039;1278;107736;-67
2022/08/29 02:04:03;;;;;;;25.40;16.00;;;;;;;20.05;60.35;98830.61;105994;1277;95743;-67
2022/08/29 02:06:33;;;;;;;29.00;17.70;;;;;;;20.06;60.42;98827.61;106056;1278;97986;-67
2022/08/29 02:09:02;;;;;;;28.40;18.00;;;;;;;20.07;60.58;98835.72;105974;1278;111157;-67
2022/08/29 02:11:31;;;;;;;29.60;18.30;;;;;;;20.10;60.60;98833.32;105993;1277;98854;-67
2022/08/29 02:13:59;;;;;;;32.30;19.00;;;;;;;20.10;60.48;98832.50;105943;1278;107779;-67
2022/08/29 02:16:28;;;;;;;30.50;19.80;;;;;;;20.10;60.55;98831.33;105963;1277;98013;-66
2022/08/29 02:18:59;;;;;;;30.70;18.40;;;;;;;20.11;60.74;98838.17;105903;1278;97811;-66
2022/08/29 02:21:29;;;;;;;30.00;19.00;;;;;;;20.13;60.87;98835.15;105899;1278;111377;-67
2022/08/29 02:24:01;;;;;;;29.90;18.00;;;;;;;20.13;61.01;98834.02;105862;1275;95296;-67
2022/08/29 02:26:51;;;;;;;30.80;19.70;;;;;;;20.13;60.94;98834.95;105852;1277;108562;-68
2022/08/29 02:29:20;;;;;;;29.60;19.50;;;;;;;20.12;61.25;98832.23;105892;1278;97882;-68
2022/08/29 02:31:48;;;;;;;29.70;17.80;;;;;;;20.14;61.31;98830.73;105901;1277;98023;-66
2022/08/29 02:34:18;;;;;;;29.60;19.30;;;;;;;20.14;61.28;98832.23;105902;1278;111401;-66
2022/08/29 02:36:46;;;;;;;31.10;19.00;;;;;;;20.13;61.22;98833.47;105865;1278;97888;-67
2022/08/29 02:39:17;;;;;;;33.60;20.70;;;;;;;20.11;61.26;98828.71;105851;1278;108215;-68
2022/08/29 02:41:45;;;;;;;29.30;17.60;;;;;;;20.08;61.15;98831.50;105875;1278;96287;-68
2022/08/29 02:44:13;;;;;;;29.90;19.10;;;;;;;20.06;61.44;98832.63;105872;1278;97955;-67
2022/08/29 02:46:41;;;;;;;30.60;19.90;;;;;;;20.06;61.31;98834.70;105895;1278;112730;-65
2022/08/29 02:49:10;;;;;;;31.30;20.30;;;;;;;20.04;61.49;98835.61;105843;1277;97935;-67
2022/08/29 02:51:38;;;;;;;29.20;19.30;;;;;;;20.03;61.56;98833.55;105815;1278;109175;-66
2022/08/29 02:54:06;;;;;;;29.40;19.90;;;;;;;20.01;61.80;98835.52;105810;1277;95291;-66
2022/08/29 02:56:35;;;;;;;29.20;19.30;;;;;;;20.02;61.92;98840.98;105875;1277;97897;-67
2022/08/29 02:59:07;;;;;;;27.20;18.20;;;;;;;20.02;61.90;98841.15;105819;1277;112693;-66
2022/08/29 03:01:37;;;;;;;30.80;19.30;;;;;;;20.01;61.99;98843.66;106055;1277;95186;-64
2022/08/29 03:04:06;;;;;;;30.10;19.80;;;;;;;20.00;61.97;98844.47;105858;1277;108216;-66
2022/08/29 03:06:34;;;;;;;27.80;17.90;;;;;;;20.00;61.91;98844.11;105769;1279;97957;-66
2022/08/29 03:09:02;;;;;;;28.50;18.80;;;;;;;19.99;62.25;98841.02;105877;1278;97876;-67
2022/08/29 03:11:31;;;;;;;31.40;18.90;;;;;;;19.99;62.27;98840.91;105847;1278;112045;-66
2022/08/29 03:14:00;;;;;;;29.90;19.40;;;;;;;19.99;62.31;98839.96;105842;1277;97922;-67
2022/08/29 03:16:29;;;;;;;30.50;19.60;;;;;;;20.00;62.35;98840.53;105980;1277;107659;-68
2022/08/29 03:18:58;;;;;;;28.00;19.10;;;;;;;19.99;62.28;98842.29;105902;1277;97884;-67
2022/08/29 03:21:27;;;;;;;26.50;17.30;;;;;;;19.98;62.67;98839.70;105884;1278;97805;-67
2022/08/29 03:23:55;;;;;;;26.30;16.90;;;;;;;19.99;62.57;98841.20;105840;1278;110882;-66
2022/08/29 03:26:25;;;;;;;26.30;16.60;;;;;;;20.00;62.67;98840.94;105846;1277;95372;-67
2022/08/29 03:28:53;;;;;;;26.00;17.40;;;;;;;20.01;62.81;98837.72;105864;1278;108486;-67
2022/08/29 03:31:21;;;;;;;24.90;16.00;;;;;;;20.01;62.87;98839.50;105856;1277;97857;-67
2022/08/29 03:33:50;;;;;;;25.50;15.00;;;;;;;20.03;62.86;98843.79;105919;1278;97899;-66
2022/08/29 03:36:18;;;;;;;25.20;15.20;;;;;;;20.04;62.98;98842.20;105861;1277;110865;-68
2022/08/29 03:38:47;;;;;;;25.60;14.80;;;;;;;20.04;62.98;98844.56;105839;1277;97990;-66
2022/08/29 03:41:21;;;;;;;23.20;14.60;;;;;;;20.05;63.21;98845.69;105846;1277;108352;-66
2022/08/29 03:43:49;;;;;;;23.70;13.50;;;;;;;20.07;63.14;98847.98;105839;1277;97907;-67
2022/08/29 03:46:18;;;;;;;26.30;16.00;;;;;;;20.08;63.32;98850.58;105885;1278;97888;-67
2022/08/29 03:48:48;;;;;;;25.90;15.60;;;;;;;20.10;63.24;98855.30;105904;1277;111493;-68
2022/08/29 03:51:18;;;;;;;24.60;15.50;;;;;;;20.12;63.43;98856.59;105941;1278;95522;-68
2022/08/29 03:53:46;;;;;;;23.80;14.70;;;;;;;20.13;63.39;98854.52;104650;1278;1797966;-69
2022/08/29 03:56:15;;;;;;;24.40;14.70;;;;;;;20.15;63.55;98852.90;105939;1277;97893;-69
2022/08/29 03:58:47;;;;;;;24.60;14.80;;;;;;;20.16;63.58;98855.83;105956;1278;97892;-68
2022/08/29 04:01:24;;;;;;;25.70;15.00;;;;;;;20.17;63.52;98857.55;105928;1277;109917;-67
2022/08/29 04:03:56;;;;;;;27.10;15.40;;;;;;;20.16;63.49;98857.98;105945;1277;97844;-67
2022/08/29 04:06:28;;;;;;;24.60;15.40;;;;;;;20.16;63.80;98863.25;105930;1277;107519;-67
2022/08/29 04:08:57;;;;;;;25.40;15.20;;;;;;;20.17;63.86;98866.45;105956;1277;97886;-66
2022/08/29 04:11:27;;;;;;;24.10;15.20;;;;;;;20.18;63.74;98869.73;105917;1277;95395;-66
2022/08/29 04:13:55;;;;;;;25.70;15.00;;;;;;;20.20;63.82;98869.86;105940;1277;111525;-66
2022/08/29 04:16:28;;;;;;;24.70;15.30;;;;;;;20.24;63.70;98874.91;106002;1277;96605;-68
2022/08/29 04:18:58;;;;;;;24.70;15.20;;;;;;;20.26;63.91;98875.16;105953;1277;108343;-67
2022/08/29 04:21:26;;;;;;;26.10;16.40;;;;;;;20.27;63.82;98874.31;105914;1277;97914;-68
2022/08/29 04:23:56;;;;;;;25.30;16.10;;;;;;;20.27;63.93;98875.96;105910;1277;97876;-68
2022/08/29 04:26:25;;;;;;;26.20;15.40;;;;;;;20.27;63.81;98875.83;105932;1277;111405;-67
2022/08/29 04:29:07;;;;;;;27.90;15.50;;;;;;;20.28;64.00;98877.89;105900;1278;97985;-67
2022/08/29 04:31:36;;;;;;;24.30;14.90;;;;;;;20.28;64.02;98875.69;105862;1277;107593;-66
2022/08/29 04:34:07;;;;;;;26.30;14.70;;;;;;;20.29;64.16;98875.34;105871;1277;95266;-67
2022/08/29 04:36:37;;;;;;;25.20;15.40;;;;;;;20.31;64.22;98876.75;105919;1277;97862;-69
2022/08/29 04:39:08;;;;;;;24.30;14.80;;;;;;;20.33;64.22;98876.46;105803;1278;112049;-67
2022/08/29 04:41:37;;;;;;;23.20;14.50;;;;;;;20.36;64.33;98875.98;106046;1277;97882;-69
2022/08/29 04:44:09;;;;;;;24.60;14.50;;;;;;;20.38;64.26;98878.59;106005;1276;107765;-70
2022/08/29 04:46:39;;;;;;;25.20;16.10;;;;;;;20.42;64.26;98877.52;105856;1276;97971;-68
2022/08/29 04:49:07;;;;;;;25.20;15.00;;;;;;;20.46;64.35;98877.59;105860;1277;96622;-70
2022/08/29 04:51:35;;;;;;;26.00;15.60;;;;;;;20.48;64.27;98878.35;105779;1277;111434;-68
2022/08/29 04:54:05;;;;;;;26.80;16.40;;;;;;;20.50;64.52;98883.60;105772;1277;97981;-69
2022/08/29 04:56:36;;;;;;;25.70;15.80;;;;;;;20.51;64.40;98885.39;105869;1277;108256;-72
2022/08/29 04:59:16;;;;;;;27.80;15.70;;;;;;;20.55;64.48;98887.69;105954;1277;97893;-70
2022/08/29 05:01:45;;;;;;;26.70;15.90;;;;;;;20.57;64.57;98891.22;105912;1277;98003;-71
2022/08/29 05:04:13;;;;;;;24.50;15.20;;;;;;;20.61;64.64;98891.10;105790;1277;111449;-71
2022/08/29 05:06:42;;;;;;;24.20;15.20;;;;;;;20.65;64.60;98895.52;105939;1277;97982;-71
2022/08/29 05:09:10;;;;;;;24.10;15.10;;;;;;;20.67;64.60;98892.89;105837;1277;107731;-71
2022/08/29 05:11:39;;;;;;;24.20;14.70;;;;;;;20.71;64.61;98893.77;105959;1277;97989;-72
2022/08/29 05:14:07;;;;;;;25.50;15.80;;;;;;;20.72;64.67;98892.48;105933;1277;97493;-75
2022/08/29 05:16:36;;;;;;;24.90;15.20;;;;;;;20.76;64.75;98899.79;105965;1277;112169;-73
2022/08/29 05:19:07;;;;;;;24.20;15.40;;;;;;;20.81;64.59;98902.27;105976;1277;95448;-74
2022/08/29 05:21:38;;;;;;;26.70;15.30;;;;;;;20.85;64.66;98903.14;105896;1277;107730;-73
2022/08/29 05:24:10;;;;;;;25.40;15.80;;;;;;;20.87;64.50;98905.02;105915;1277;97890;-71
2022/08/29 05:26:43;;;;;;;22.90;14.70;;;;;;;20.90;64.72;98902.15;105778;1277;97900;-72
2022/08/29 05:29:12;;;;;;;;;;;;;;;20.92;64.65;98902.48;105937;1276;111370;-69
2022/08/29 05:31:41;;;;;;;23.10;14.10;;;;;;;20.90;64.61;98900.83;105925;1277;97919;-72
2022/08/29 05:34:13;;;;;;;21.50;13.60;;;;;;;20.93;64.71;98899.26;105895;1277;108062;-71
2022/08/29 05:37:06;;;;;;;23.00;14.10;;;;;;;20.95;64.68;98899.83;105860;1277;98034;-71
2022/08/29 05:39:36;;;;;;;22.60;13.10;;;;;;;20.98;64.78;98902.98;105888;1277;97876;-73
2022/08/29 05:42:06;;;;;;;22.50;13.70;;;;;;;21.03;64.73;98899.23;105924;1276;111394;-73
2022/08/29 05:44:35;;;;;;;22.20;12.60;;;;;;;21.06;64.84;98897.70;105979;1276;98488;-72
2022/08/29 05:47:05;;;;;;;23.00;12.40;;;;;;;21.09;64.78;98903.36;105833;1277;107852;-71
2022/08/29 05:49:38;;;;;;;19.20;11.00;;;;;;;21.10;64.67;98904.06;105848;1278;97877;-69
2022/08/29 05:52:07;;;;;;;18.90;9.70;;;;;;;21.07;64.64;98901.52;105943;1276;97972;-70
2022/08/29 05:54:38;;;;;;;17.50;9.10;;;;;;;21.07;64.75;98908.38;105918;1276;111289;-72
2022/08/29 05:57:09;;;;;;;19.50;8.40;;;;;;;21.05;64.65;98909.75;105933;1276;95962;-72
2022/08/29 05:59:43;;;;;;;18.60;8.80;;;;;;;21.01;64.70;98913.47;105941;1276;109247;-74
2022/08/29 06:02:12;;;;;;;22.10;8.70;;;;;;;21.00;64.89;98911.26;105926;1276;97977;-73
2022/08/29 06:04:40;;;;;;;17.00;9.00;;;;;;;21.03;64.93;98915.29;105942;1276;96370;-71
2022/08/29 06:07:09;;;;;;;16.40;8.60;;;;;;;21.04;64.91;98913.14;105865;1276;111369;-74
2022/08/29 06:09:40;;;;;;;15.20;8.20;;;;;;;21.05;64.81;98916.74;105950;1276;95885;-75
2022/08/29 06:12:10;;;;;;;16.70;8.50;;;;;;;21.04;64.96;98915.27;105894;1276;108362;-75
2022/08/29 06:14:38;;;;;;;17.00;8.30;;;;;;;21.04;64.91;98924.29;105857;1276;98002;-75
2022/08/29 06:17:08;;;;;;;17.30;8.90;;;;;;;21.01;64.87;98921.04;105856;1276;95927;-71
2022/08/29 06:19:38;;;;;;;21.90;9.70;;;;;;;20.97;64.98;98927.27;105957;1276;111406;-73
2022/08/29 06:22:08;;;;;;;17.90;10.00;;;;;;;20.93;64.89;98930.00;105945;1277;98025;-73
2022/08/29 06:24:38;;;;;;;17.30;9.40;;;;;;;20.88;65.14;98937.00;105930;1276;107700;-73
2022/08/29 06:27:06;;;;;;;18.10;9.30;;;;;;;20.86;65.15;98938.55;106037;1276;97995;-72
2022/08/29 06:29:34;;;;;;;19.00;9.90;;;;;;;20.85;65.19;98946.14;105962;1276;97947;-72
2022/08/29 06:32:12;;;;;;;18.90;9.60;;;;;;;20.85;65.26;98948.86;105970;1276;111469;-75
2022/08/29 06:34:40;;;;;;;17.60;9.50;;;;;;;20.84;65.21;98952.27;106046;1275;97954;-70
2022/08/29 06:37:09;;;;;;;16.60;8.80;;;;;;;20.77;65.41;98952.86;105961;1276;108272;-75
2022/08/29 06:39:37;;;;;;;18.20;9.30;;;;;;;20.74;65.36;98960.54;105962;1276;97980;-75
2022/08/29 06:42:05;;;;;;;19.50;9.30;;;;;;;20.72;65.34;98963.70;105999;1276;98464;-73
2022/08/29 06:44:34;;;;;;;19.60;9.70;;;;;;;20.67;65.28;98964.46;106021;1276;113275;-71
2022/08/29 06:47:03;;;;;;;18.60;9.10;;;;;;;20.62;65.33;98965.70;105995;1275;97939;-74
2022/08/29 06:49:32;;;;;;;17.10;9.70;;;;;;;20.57;65.66;98966.54;105895;1276;107804;-71
2022/08/29 06:52:00;;;;;;;17.40;9.40;;;;;;;20.58;65.60;98967.67;105865;1276;97956;-78
2022/08/29 06:54:28;;;;;;;19.10;9.90;;;;;;;20.57;65.62;98966.83;105870;1276;97874;-74
2022/08/29 06:56:58;;;;;;;16.30;8.80;;;;;;;20.57;65.78;98968.11;105840;1276;111077;-76
2022/08/29 06:59:28;;;;;;;20.80;10.10;;;;;;;20.57;65.80;98970.73;105915;1276;97905;-74
2022/08/29 07:01:56;;;;;;;19.90;9.90;;;;;;;20.57;65.80;98969.77;105864;1275;107687;-73
2022/08/29 07:04:24;;;;;;;21.50;10.10;;;;;;;20.60;65.87;98971.73;105900;1276;97877;-74
2022/08/29 07:06:54;;;;;;;19.40;10.00;;;;;;;20.64;66.06;98973.10;105851;1276;96052;-74
2022/08/29 07:09:21;;;;;;;18.60;9.90;;;;;;;20.66;65.87;98974.30;105910;1275;111664;-74
2022/08/29 07:11:52;;;;;;;17.40;9.60;;;;;;;20.68;65.82;98974.19;105823;1276;98004;-75
2022/08/29 07:14:20;;;;;;;19.20;9.90;;;;;;;20.69;65.80;98977.56;105760;1276;109377;-73
2022/08/29 07:16:48;;;;;;;23.80;10.00;;;;;;;20.70;66.01;98972.92;105760;1276;97887;-74
2022/08/29 07:19:16;;;;;;;18.70;9.10;;;;;;;20.71;65.81;98975.91;105843;1276;98010;-71
2022/08/29 07:21:44;;;;;;;19.20;9.60;;;;;;;20.72;65.98;98978.80;105870;1276;111355;-71
2022/08/29 07:24:12;;;;;;;16.60;8.90;;;;;;;20.74;65.95;98979.12;105817;1277;97916;-69
2022/08/29 07:26:42;;;;;;;17.70;8.40;;;;;;;20.77;65.99;98980.98;105898;1276;108819;-69
2022/08/29 07:29:19;;;;;;;17.70;8.30;;;;;;;20.78;65.89;98982.21;105832;1276;95408;-69
2022/08/29 07:31:49;;;;;;;18.00;8.30;;;;;;;20.81;66.07;98982.16;105772;1276;97894;-69
2022/08/29 07:34:18;;;;;;;16.60;8.80;;;;;;;20.81;66.12;98982.61;105817;1276;111311;-66
2022/08/29 07:36:48;;;;;;;19.70;8.10;;;;;;;20.84;66.07;98983.23;105850;1276;97879;-65
2022/08/29 07:39:19;;;;;;;17.20;8.20;;;;;;;20.92;66.10;98987.95;105949;1276;107493;-69
2022/08/29 07:41:50;;;;;;;14.00;7.20;;;;;;;20.96;66.13;98985.40;105757;1277;95692;-70
2022/08/29 07:44:17;;;;;;;12.40;6.40;;;;;;;21.02;66.23;98991.73;105769;1276;97897;-70
2022/08/29 07:46:47;;;;;;;12.00;5.90;;;;;;;21.07;66.15;98998.52;105596;1277;111077;-69
2022/08/29 07:49:16;;;;;;;9.30;5.00;;;;;;;21.10;66.18;99003.06;105638;1276;95860;-69
2022/08/29 07:51:44;;;;;;;8.50;4.90;;;;;;;21.05;66.08;99002.94;105663;1276;106782;-69
2022/08/29 07:54:15;;;;;;;11.90;6.00;;;;;;;20.99;66.05;99005.48;105709;1277;97879;-71
2022/08/29 07:56:49;;;;;;;10.00;5.60;;;;;;;20.96;66.45;99010.35;105672;1278;97952;-69
2022/08/29 07:59:21;;;;;;;13.90;5.90;;;;;;;20.96;66.45;99010.14;105714;1276;114040;-71
2022/08/29 08:01:48;;;;;;;12.20;6.30;;;;;;;20.97;66.30;99011.09;105614;1276;97947;-69
2022/08/29 08:04:33;;;;;;;9.70;5.80;;;;;;;20.96;66.49;99019.06;105610;1276;108337;-68
2022/08/29 08:07:03;;;;;;;10.40;5.50;;;;;;;20.96;66.37;99013.69;105720;1276;97965;-67
2022/08/29 08:09:41;;;;;;;11.10;5.90;;;;;;;20.91;66.24;99021.36;105759;1276;98438;-70
2022/08/29 08:12:11;;;;;;;11.50;5.90;;;;;;;20.83;66.35;99026.00;105657;1276;111997;-70
2022/08/29 08:14:40;;;;;;;9.40;5.60;;;;;;;20.81;66.20;99028.61;105724;1276;96296;-70
2022/08/29 08:17:10;;;;;;;14.50;6.20;;;;;;;20.76;66.26;99027.87;105768;1276;107011;-70
2022/08/29 08:19:39;;;;;;;13.10;6.30;;;;;;;20.74;66.53;99030.80;105789;1276;97987;-70
2022/08/29 08:22:08;;;;;;;8.70;5.40;;;;;;;20.76;66.47;99032.56;105695;1276;97825;-69
2022/08/29 08:24:37;;;;;;;14.80;6.00;;;;;;;20.76;66.47;99031.55;105729;1277;111462;-69
2022/08/29 08:27:08;;;;;;;10.40;5.50;;;;;;;20.73;66.62;99028.23;105786;1278;97947;-69
2022/08/29 08:29:36;;;;;;;10.00;5.80;;;;;;;20.73;66.57;99029.13;105722;1275;108060;-69
2022/08/29 08:32:04;;;;;;;11.90;6.60;;;;;;;20.78;66.69;99035.63;105776;1276;97946;-67
2022/08/29 08:34:32;;;;;;;11.70;5.40;;;;;;;20.78;66.58;99034.02;105763;1275;96219;-70
2022/08/29 08:37:10;;;;;;;13.40;5.70;;;;;;;20.83;66.75;99039.02;105846;1277;111410;-67
2022/08/29 08:39:47;;;;;;;9.30;4.80;;;;;;;20.86;66.81;99037.91;105740;1276;96882;-68
2022/08/29 08:42:34;;;;;;;9.80;5.30;;;;;;;20.90;66.63;99044.75;105800;1276;108366;-70
2022/08/29 08:45:13;;;;;;;9.70;5.10;;;;;;;20.93;66.50;99047.36;106058;1276;98070;-69
2022/08/29 08:47:51;;;;;;;9.70;5.30;;;;;;;20.97;66.49;99046.81;105845;1277;95279;-70
2022/08/29 08:50:24;;;;;;;10.40;5.30;;;;;;;20.95;66.75;99045.66;105914;1276;111707;-70
2022/08/29 08:53:06;;;;;;;9.70;5.30;;;;;;;21.01;66.51;99038.59;105874;1276;97891;-65
2022/08/29 08:55:55;;;;;;;9.10;4.70;;;;;;;21.06;66.62;99041.60;105877;1276;108560;-68
2022/08/29 08:58:46;;;;;;;12.10;5.40;;;;;;;21.09;66.87;99044.64;105904;1276;97896;-68
2022/08/29 09:01:41;;;;;;;10.40;6.00;;;;;;;21.13;66.86;99046.69;105693;1276;97760;-69
2022/08/29 09:04:30;;;;;;;10.60;5.20;;;;;;;21.20;66.76;99044.25;105842;1276;111760;-70
2022/08/29 09:07:25;;;;;;;9.30;5.30;;;;;;;21.30;66.78;99046.52;105748;1276;97946;-69
2022/08/29 09:10:30;;;;;;;10.90;5.50;;;;;;;21.41;66.80;99044.70;105772;1276;107596;-70
2022/08/29 09:13:27;;;;;;;15.50;6.30;;;;;;;21.48;66.63;99052.22;105750;1277;97993;-69
2022/08/29 09:16:00;;;;;;;13.00;6.00;;;;;;;21.43;66.62;99052.55;105874;1277;97940;-67
2022/08/29 09:18:37;;;;;;;14.70;6.70;;;;;;;21.41;66.71;99056.55;105751;1277;111143;-70
2022/08/29 09:21:26;;;;;;;10.30;5.70;;;;;;;21.38;66.63;99056.84;105797;1276;98016;-70
2022/08/29 09:24:27;;;;;;;13.60;5.70;;;;;;;21.33;66.59;99063.64;105812;1276;107699;-69
2022/08/29 09:26:55;;;;;;;12.60;6.00;;;;;;;21.29;66.61;99064.27;105815;1276;98003;-68
2022/08/29 09:29:29;;;;;;;12.40;6.60;;;;;;;21.26;66.62;99061.96;105817;1276;98005;-68
2022/08/29 09:32:12;;;;;;;14.30;7.00;;;;;;;21.25;66.64;99060.99;105880;1276;112072;-68
2022/08/29 09:34:48;;;;;;;12.10;5.90;;;;;;;21.27;66.56;99060.02;105735;1277;96828;-68
2022/08/29 09:37:39;;;;;;;16.00;7.10;;;;;;;21.47;66.42;99056.12;105820;1276;109434;-68
2022/08/29 09:40:11;;;;;;;11.10;6.10;;;;;;;21.98;66.31;99052.89;105797;1276;97981;-69
2022/08/29 09:43:01;;;;;;;13.20;6.60;;;;;;;22.31;66.46;99046.83;105787;1276;98530;-69
2022/08/29 09:45:32;;;;;;;15.00;6.20;;;;;;;22.53;66.52;99044.89;105715;1278;112191;-70
2022/08/29 09:48:30;;;;;;;15.90;6.70;;;;;;;22.58;66.61;99043.66;105826;1276;97972;-68
2022/08/29 09:51:28;;;;;;;15.30;7.40;;;;;;;22.60;66.51;99048.67;105613;1276;106767;-71
2022/08/29 09:54:11;;;;;;;;;;;;;;;22.56;66.09;99043.55;105737;1276;97726;-72
2022/08/29 09:56:49;;;;;;;11.80;6.30;;;;;;;22.50;66.08;99045.63;105714;1277;97889;-72
2022/08/29 09:59:28;;;;;;;12.90;6.80;;;;;;;22.49;66.15;99047.30;105822;1275;111501;-72
2022/08/29 10:02:18;;;;;;;12.60;6.90;;;;;;;22.45;66.09;99060.63;106115;1277;97857;-71
2022/08/29 10:04:57;;;;;;;14.70;7.20;;;;;;;22.32;65.89;99054.98;105603;1275;107788;-70
2022/08/29 10:07:30;;;;;;;14.50;6.50;;;;;;;22.26;65.99;99057.77;105734;1276;98000;-69
2022/08/29 10:10:01;;;;;;;13.80;6.90;;;;;;;22.22;65.85;99059.50;105788;1276;95273;-69
2022/08/29 10:12:41;;;;;;;14.20;6.60;;;;;;;22.11;65.70;99064.31;105751;1276;111324;-68
2022/08/29 10:15:19;;;;;;;13.80;6.70;;;;;;;22.05;65.96;99063.48;105770;1276;98032;-70
2022/08/29 10:18:19;;;;;;;13.90;7.00;;;;;;;22.03;66.01;99063.77;105732;1276;108597;-72
2022/08/29 10:20:58;;;;;;;18.00;7.00;;;;;;;22.04;66.01;99067.04;105760;1275;98581;-69
2022/08/29 10:23:51;;;;;;;13.70;7.20;;;;;;;22.11;65.84;99069.98;105832;1276;97997;-69
2022/08/29 10:26:53;;;;;;;15.70;7.30;;;;;;;22.25;65.79;99074.63;105740;1275;111499;-71
2022/08/29 10:29:42;;;;;;;17.20;8.00;;;;;;;22.32;65.63;99072.64;105756;1276;97873;-75
2022/08/29 10:32:52;;;;;;;18.40;8.70;;;;;;;22.36;65.92;99074.60;105837;1275;108223;-75
2022/08/29 10:35:48;;;;;;;16.10;8.30;;;;;;;22.31;65.53;99075.30;105833;1276;97922;-76
2022/08/29 10:38:54;;;;;;;17.30;8.60;;;;;;;22.24;65.78;99074.02;105884;1276;97964;-72
2022/08/29 10:41:45;;;;;;;15.80;8.70;;;;;;;22.25;65.70;99073.17;105851;1276;111799;-72
2022/08/29 10:44:29;;;;;;;21.20;9.20;;;;;;;22.27;65.52;99072.70;105836;1276;97814;-73
2022/08/29 10:47:18;;;;;;;19.50;9.00;;;;;;;22.29;65.63;99073.91;105854;1276;107521;-73
2022/08/29 10:50:14;;;;;;;18.80;9.50;;;;;;;22.33;65.59;99072.00;105797;1275;97907;-73
2022/08/29 10:53:30;;;;;;;15.20;8.70;;;;;;;22.35;65.47;99062.96;105777;1276;97951;-72
2022/08/29 10:56:10;;;;;;;23.80;8.60;;;;;;;22.49;65.50;99064.27;105842;1276;110438;-72
2022/08/29 10:58:54;;;;;;;18.50;9.10;;;;;;;22.60;65.32;99057.94;105872;1276;97998;-73
2022/08/29 11:01:39;;;;;;;18.80;8.70;;;;;;;22.70;65.51;99058.43;105807;1276;107570;-75
2022/08/29 11:04:33;;;;;;;18.00;8.90;;;;;;;22.83;65.36;99062.56;105750;1276;96416;-68
2022/08/29 11:07:06;;;;;;;17.90;9.30;;;;;;;22.96;65.12;99058.71;105707;1278;98029;-72
2022/08/29 11:09:39;;;;;;;;;;;;;;;23.13;65.30;99052.11;105791;1275;111380;-72
2022/08/29 11:12:33;;;;;;;19.20;9.10;;;;;;;23.27;65.31;99051.82;105759;1276;97971;-69
2022/08/29 11:15:06;;;;;;;18.30;10.00;;;;;;;23.36;65.30;99047.60;105789;1276;107737;-69
2022/08/29 11:17:41;;;;;;;19.60;9.50;;;;;;;23.39;64.86;99048.75;105709;1276;98040;-70
2022/08/29 11:20:20;;;;;;;17.60;8.80;;;;;;;23.49;65.13;99052.09;105718;1276;98694;-71
2022/08/29 11:23:07;;;;;;;17.50;8.70;;;;;;;23.61;64.95;99048.77;105745;1276;111204;-72
2022/08/29 11:25:40;;;;;;;18.10;8.40;;;;;;;23.72;64.68;99051.92;105769;1276;98005;-72
2022/08/29 11:28:50;;;;;;;17.10;8.20;;;;;;;23.76;64.51;99053.67;105883;1276;107714;-72
2022/08/29 11:31:49;;;;;;;20.50;8.00;;;;;;;23.82;64.40;99057.19;105842;1276;97983;-68
2022/08/29 11:34:30;;;;;;;12.60;6.90;;;;;;;23.86;64.23;99057.91;105797;1276;96447;-76
2022/08/29 11:37:29;;;;;;;18.50;7.50;;;;;;;23.87;64.20;99053.45;105871;1276;111029;-74
2022/08/29 11:40:21;;;;;;;15.40;7.90;;;;;;;23.93;64.12;99056.13;105833;1275;98010;-78
2022/08/29 11:43:17;;;;;;;16.40;8.10;;;;;;;23.99;63.77;99052.27;105780;1276;107835;-69
2022/08/29 11:45:58;;;;;;;17.00;8.00;;;;;;;24.07;63.67;99057.86;105701;1277;95192;-75
2022/08/29 11:48:34;;;;;;;14.40;7.40;;;;;;;24.18;63.71;99057.30;105750;1276;95285;-74